Time;durP1;ratioP1;P1;durP2;ratioP2;P2;SDS_P1;SDS_P2;PMS_P1;PMS_P2;Temp;Humidity;BMP_temperature;BMP_pressure;BME280_temperature;BME280_humidity;BME280_pressure;Samples;Min_cycle;Max_cycle;Signal;HPM_P1;HPM_P2
2023/12/14 00:00:53;;;;;;;17.33;13.25;;;7.30;99.90;;;;;;4939554;29;20240;-75
2023/12/14 00:03:20;;;;;;;20.35;13.35;;;7.40;99.90;;;;;;4938237;29;20311;-75
2023/12/14 00:05:48;;;;;;;14.73;12.00;;;7.40;99.90;;;;;;4938036;29;20678;-75
2023/12/14 00:08:16;;;;;;;17.50;13.85;;;7.40;99.90;;;;;;4938426;29;20229;-75
2023/12/14 00:10:43;;;;;;;16.67;12.02;;;7.40;99.90;;;;;;4938977;29;20243;-81
2023/12/14 00:13:10;;;;;;;17.00;12.57;;;7.40;99.90;;;;;;4937736;29;20229;-81
2023/12/14 00:15:37;;;;;;;14.32;11.55;;;7.40;99.90;;;;;;4938822;29;20236;-75
2023/12/14 00:18:04;;;;;;;14.98;11.63;;;7.40;99.90;;;;;;4938914;29;20229;-82
2023/12/14 00:20:31;;;;;;;14.82;12.70;;;7.30;99.90;;;;;;4938510;29;20552;-75
2023/12/14 00:22:59;;;;;;;15.43;11.55;;;7.30;99.90;;;;;;4939045;29;20232;-75
2023/12/14 00:25:26;;;;;;;14.93;12.10;;;7.30;99.90;;;;;;4957511;29;20575;-75
2023/12/14 00:27:53;;;;;;;16.83;12.68;;;7.30;99.90;;;;;;4958194;29;20235;-75
2023/12/14 00:30:20;;;;;;;17.58;13.20;;;7.20;99.90;;;;;;4957134;29;20224;-82
2023/12/14 00:32:48;;;;;;;15.40;12.68;;;7.20;99.90;;;;;;4957770;29;20701;-75
2023/12/14 00:35:15;;;;;;;15.15;11.25;;;7.30;99.90;;;;;;4957013;29;20224;-75
2023/12/14 00:37:42;;;;;;;17.75;12.73;;;7.30;99.90;;;;;;4958180;29;20235;-82
2023/12/14 00:40:12;;;;;;;15.75;11.63;;;7.30;99.90;;;;;;4958348;29;20576;-82
2023/12/14 00:42:39;;;;;;;14.48;11.63;;;7.30;99.90;;;;;;4957725;29;20236;-82
2023/12/14 00:45:07;;;;;;;17.73;11.43;;;7.20;99.90;;;;;;4957617;28;20243;-82
2023/12/14 00:47:34;;;;;;;20.30;12.50;;;7.20;99.90;;;;;;4957290;29;20228;-75
2023/12/14 00:50:01;;;;;;;15.38;11.68;;;7.20;99.90;;;;;;4956998;29;20591;-83
2023/12/14 00:52:28;;;;;;;18.10;12.50;;;7.20;99.90;;;;;;4957599;29;20231;-82
2023/12/14 00:54:55;;;;;;;15.43;12.30;;;7.20;99.90;;;;;;4960177;29;20550;-83
2023/12/14 00:57:23;;;;;;;13.55;11.40;;;7.20;99.90;;;;;;4954277;29;20655;-82
2023/12/14 00:59:50;;;;;;;14.50;12.00;;;7.20;99.90;;;;;;4945821;29;20232;-83
2023/12/14 01:02:17;;;;;;;13.70;11.20;;;7.10;99.90;;;;;;4945063;29;20676;-82
2023/12/14 01:04:44;;;;;;;11.77;10.05;;;7.10;99.90;;;;;;4947348;29;20250;-82
2023/12/14 01:07:11;;;;;;;11.88;10.68;;;7.10;99.90;;;;;;4949570;29;20224;-83
2023/12/14 01:09:38;;;;;;;11.30;10.02;;;7.10;99.90;;;;;;4948146;29;20225;-82
2023/12/14 01:12:06;;;;;;;13.48;11.48;;;7.10;99.90;;;;;;4944661;29;20237;-76
2023/12/14 01:14:34;;;;;;;15.88;10.68;;;7.10;99.90;;;;;;4937245;29;20427;-76
2023/12/14 01:17:01;;;;;;;13.00;10.45;;;7.10;99.90;;;;;;4937918;29;20263;-76
2023/12/14 01:19:28;;;;;;;12.77;9.77;;;7.10;99.90;;;;;;4956506;29;20228;-76
2023/12/14 01:21:56;;;;;;;11.27;10.07;;;7.10;99.90;;;;;;4956704;29;20239;-82
2023/12/14 01:24:23;;;;;;;12.30;10.73;;;7.10;99.90;;;;;;4946692;29;20454;-82
2023/12/14 01:26:53;;;;;;;10.40;9.30;;;7.10;99.90;;;;;;4938426;29;20669;-77
2023/12/14 01:29:20;;;;;;;13.30;8.82;;;7.00;99.90;;;;;;4937396;29;20245;-82
2023/12/14 01:31:48;;;;;;;11.88;9.45;;;7.00;99.90;;;;;;4937994;29;20240;-83
2023/12/14 01:34:15;;;;;;;12.40;8.90;;;7.00;99.90;;;;;;4937734;29;20307;-83
2023/12/14 01:36:42;;;;;;;9.13;7.40;;;7.00;99.90;;;;;;4936975;29;20220;-82
2023/12/14 01:39:09;;;;;;;11.00;8.30;;;7.00;99.90;;;;;;4937491;29;20217;-75
2023/12/14 01:41:36;;;;;;;9.30;7.88;;;7.00;99.90;;;;;;4920706;29;20296;-81
2023/12/14 01:44:03;;;;;;;9.05;8.05;;;6.90;99.90;;;;;;4917638;29;20288;-75
2023/12/14 01:46:30;;;;;;;9.23;8.27;;;6.90;99.90;;;;;;4917714;29;20684;-82
2023/12/14 01:48:59;;;;;;;9.40;8.13;;;6.90;99.90;;;;;;4918555;29;20229;-82
2023/12/14 01:51:27;;;;;;;10.68;8.45;;;6.90;99.90;;;;;;4917039;29;20260;-76
2023/12/14 01:53:53;;;;;;;8.43;7.15;;;6.90;99.90;;;;;;4918250;29;20328;-75
2023/12/14 01:56:20;;;;;;;7.80;6.65;;;6.90;99.90;;;;;;4917801;29;20241;-82
2023/12/14 01:58:47;;;;;;;6.93;6.22;;;6.90;99.90;;;;;;4917967;29;20244;-82
2023/12/14 02:01:21;;;;;;;7.47;6.78;;;6.90;99.90;;;;;;4918098;29;20324;-74
2023/12/14 02:03:51;;;;;;;7.82;7.13;;;6.80;99.90;;;;;;4917074;29;20253;-82
2023/12/14 02:06:19;;;;;;;8.98;8.07;;;6.90;99.90;;;;;;4918107;29;20229;-82
2023/12/14 02:08:46;;;;;;;9.32;7.78;;;6.80;99.90;;;;;;4916902;29;20221;-75
2023/12/14 02:11:13;;;;;;;7.70;6.85;;;6.80;99.90;;;;;;4917900;29;20233;-82
2023/12/14 02:13:40;;;;;;;9.52;7.95;;;6.80;99.90;;;;;;4916863;29;20225;-82
2023/12/14 02:16:09;;;;;;;9.82;8.60;;;6.80;99.90;;;;;;4917673;29;20308;-82
2023/12/14 02:18:36;;;;;;;12.75;9.65;;;6.80;99.90;;;;;;4916686;29;20225;-82
2023/12/14 02:21:03;;;;;;;10.52;7.97;;;6.70;99.90;;;;;;4917573;29;20230;-82
2023/12/14 02:23:31;;;;;;;9.80;8.80;;;6.70;99.90;;;;;;4917038;29;20248;-75
2023/12/14 02:25:58;;;;;;;10.60;9.50;;;6.70;99.90;;;;;;4917496;29;20230;-75
2023/12/14 02:28:25;;;;;;;12.45;9.15;;;6.70;99.90;;;;;;4917291;29;20229;-75
2023/12/14 02:30:52;;;;;;;9.75;8.70;;;6.70;99.90;;;;;;4916821;29;20660;-75
2023/12/14 02:33:19;;;;;;;10.18;8.55;;;6.70;99.90;;;;;;4917491;29;20260;-82
2023/12/14 02:35:46;;;;;;;9.98;8.98;;;6.70;99.90;;;;;;4916496;29;20225;-82
2023/12/14 02:38:13;;;;;;;9.75;8.73;;;6.70;99.90;;;;;;4907481;29;20236;-82
2023/12/14 02:40:41;;;;;;;12.07;9.52;;;6.70;99.90;;;;;;4916834;29;20232;-82
2023/12/14 02:43:08;;;;;;;11.63;10.43;;;6.70;99.90;;;;;;4917304;29;20232;-82
2023/12/14 02:45:35;;;;;;;11.40;10.15;;;6.70;99.90;;;;;;4916909;29;20253;-75
2023/12/14 02:48:03;;;;;;;10.73;8.70;;;6.70;99.90;;;;;;4917071;29;20221;-82
2023/12/14 02:50:30;;;;;;;13.48;9.13;;;6.70;99.90;;;;;;4917335;29;20229;-82
2023/12/14 02:52:57;;;;;;;13.50;9.52;;;6.70;99.90;;;;;;4916603;29;20225;-74
2023/12/14 02:55:24;;;;;;;10.52;8.55;;;6.70;99.90;;;;;;4917272;29;20233;-82
2023/12/14 02:57:52;;;;;;;11.32;10.27;;;6.70;99.90;;;;;;4917031;29;20691;-74
2023/12/14 03:00:20;;;;;;;13.90;10.32;;;6.70;99.90;;;;;;4917151;29;20229;-81
2023/12/14 03:02:47;;;;;;;10.35;9.35;;;6.70;99.90;;;;;;4916654;29;20237;-81
2023/12/14 03:05:14;;;;;;;13.25;9.30;;;6.80;99.90;;;;;;4915794;29;20813;-74
2023/12/14 03:07:41;;;;;;;11.40;9.48;;;6.80;99.90;;;;;;4916500;29;20229;-74
2023/12/14 03:10:09;;;;;;;11.77;9.13;;;6.80;99.90;;;;;;4916497;29;20316;-74
2023/12/14 03:12:36;;;;;;;12.20;9.85;;;6.70;99.90;;;;;;4916465;29;20226;-81
2023/12/14 03:15:05;;;;;;;13.00;9.43;;;6.70;99.90;;;;;;4916926;29;20307;-81
2023/12/14 03:17:32;;;;;;;12.23;9.40;;;6.70;99.90;;;;;;4916980;29;20229;-74
2023/12/14 03:20:00;;;;;;;12.90;9.32;;;6.70;99.90;;;;;;4916866;29;20225;-74
2023/12/14 03:22:26;;;;;;;11.85;8.55;;;6.70;99.90;;;;;;4916877;29;20252;-74
2023/12/14 03:24:53;;;;;;;12.70;9.18;;;6.70;99.90;;;;;;4931068;29;20267;-81
2023/12/14 03:27:22;;;;;;;11.25;10.07;;;6.70;99.90;;;;;;4935771;29;20225;-81
2023/12/14 03:29:49;;;;;;;10.25;8.93;;;6.70;99.90;;;;;;4935181;29;20239;-75
2023/12/14 03:32:17;;;;;;;14.32;10.35;;;6.70;99.90;;;;;;4935832;29;20263;-81
2023/12/14 03:34:44;;;;;;;10.23;8.50;;;6.70;99.90;;;;;;4935643;29;20561;-81
2023/12/14 03:37:11;;;;;;;10.88;8.27;;;6.80;99.90;;;;;;4935240;29;20664;-81
2023/12/14 03:39:39;;;;;;;10.13;9.02;;;6.80;99.90;;;;;;4935003;29;20713;-81
2023/12/14 03:42:06;;;;;;;11.50;9.25;;;6.80;99.90;;;;;;4936041;29;20243;-81
2023/12/14 03:44:33;;;;;;;13.27;11.70;;;6.70;99.90;;;;;;4935864;29;20237;-74
2023/12/14 03:47:01;;;;;;;12.05;9.70;;;6.70;99.90;;;;;;4925058;29;20675;-74
2023/12/14 03:49:29;;;;;;;10.50;9.32;;;6.80;99.90;;;;;;4935729;29;20224;-74
2023/12/14 03:51:56;;;;;;;9.38;8.57;;;6.80;99.90;;;;;;4935034;29;20233;-81
2023/12/14 03:54:23;;;;;;;10.77;9.68;;;6.80;99.90;;;;;;4935918;29;20667;-81
2023/12/14 03:56:50;;;;;;;9.20;7.95;;;6.80;99.90;;;;;;4935416;29;20225;-74
2023/12/14 03:59:17;;;;;;;9.68;7.63;;;6.80;99.90;;;;;;4935805;29;20315;-74
2023/12/14 04:01:44;;;;;;;8.50;7.70;;;6.80;99.90;;;;;;4934971;29;20225;-74
2023/12/14 04:04:11;;;;;;;8.57;7.50;;;6.80;99.90;;;;;;4935593;29;20743;-74
2023/12/14 04:06:40;;;;;;;8.82;7.82;;;6.80;99.90;;;;;;4935631;29;20221;-82
2023/12/14 04:09:06;;;;;;;10.40;7.85;;;6.90;99.90;;;;;;4935100;29;20228;-74
2023/12/14 04:11:33;;;;;;;11.10;7.47;;;6.80;99.90;;;;;;4935337;29;20224;-82
2023/12/14 04:14:00;;;;;;;9.57;8.35;;;6.80;99.90;;;;;;4935234;29;20221;-82
2023/12/14 04:16:27;;;;;;;8.35;7.45;;;6.80;99.90;;;;;;4935639;29;20680;-82
2023/12/14 04:18:56;;;;;;;9.48;7.80;;;6.80;99.90;;;;;;4935118;29;20232;-82
2023/12/14 04:21:23;;;;;;;8.20;7.15;;;6.80;99.90;;;;;;4938711;29;20304;-82
2023/12/14 04:23:51;;;;;;;8.30;7.50;;;6.80;99.90;;;;;;4938369;29;20244;-81
2023/12/14 04:26:18;;;;;;;9.32;7.82;;;6.80;99.90;;;;;;4938877;29;20231;-74
2023/12/14 04:28:46;;;;;;;9.27;7.60;;;6.80;99.90;;;;;;4938326;29;20240;-74
2023/12/14 04:31:13;;;;;;;8.55;7.70;;;6.80;99.90;;;;;;4938969;29;20413;-75
2023/12/14 04:33:39;;;;;;;9.82;7.68;;;6.80;99.90;;;;;;4938332;29;20231;-74
2023/12/14 04:36:07;;;;;;;8.60;7.70;;;6.80;99.90;;;;;;4938520;29;20220;-81
2023/12/14 04:38:34;;;;;;;9.35;8.23;;;6.80;99.90;;;;;;4938828;29;20734;-74
2023/12/14 04:41:03;;;;;;;8.85;7.40;;;6.80;99.90;;;;;;4938327;29;20240;-74
2023/12/14 04:43:33;;;;;;;8.18;7.30;;;6.70;99.90;;;;;;4938457;29;20233;-74
2023/12/14 04:46:00;;;;;;;11.00;9.48;;;6.80;99.90;;;;;;4938266;29;20263;-81
2023/12/14 04:48:27;;;;;;;12.43;9.05;;;6.80;99.90;;;;;;4938578;29;20276;-82
2023/12/14 04:50:54;;;;;;;8.55;7.13;;;6.80;99.90;;;;;;4938175;29;20240;-82
2023/12/14 04:53:29;;;;;;;9.32;8.23;;;6.80;99.90;;;;;;4938556;29;20698;-82
2023/12/14 04:55:56;;;;;;;9.10;7.85;;;6.80;99.90;;;;;;4937912;29;20224;-74
2023/12/14 04:58:24;;;;;;;10.88;9.00;;;6.80;99.90;;;;;;4938509;29;20240;-81
2023/12/14 05:00:51;;;;;;;9.40;8.40;;;6.80;99.90;;;;;;4937752;29;20225;-81
2023/12/14 05:03:18;;;;;;;10.48;8.48;;;6.80;99.90;;;;;;4938243;29;20232;-81
2023/12/14 05:05:45;;;;;;;10.60;9.50;;;6.80;99.90;;;;;;4938130;29;20229;-74
2023/12/14 05:08:18;;;;;;;9.00;7.97;;;6.80;99.90;;;;;;4928178;29;20221;-75
2023/12/14 05:10:46;;;;;;;10.15;7.95;;;6.80;99.90;;;;;;4937884;29;20300;-74
2023/12/14 05:13:13;;;;;;;10.90;8.85;;;6.70;99.90;;;;;;4943499;29;20235;-81
2023/12/14 05:15:42;;;;;;;12.30;8.27;;;6.80;99.90;;;;;;4952715;29;20224;-81
2023/12/14 05:18:09;;;;;;;9.55;8.52;;;6.80;99.90;;;;;;4938048;29;20691;-74
2023/12/14 05:20:37;;;;;;;8.98;8.07;;;6.80;99.90;;;;;;4945124;29;20221;-81
2023/12/14 05:23:04;;;;;;;9.75;8.73;;;6.80;99.90;;;;;;4947364;29;20260;-75
2023/12/14 05:25:30;;;;;;;9.93;8.65;;;6.80;99.90;;;;;;4937606;29;20229;-74
2023/12/14 05:27:57;;;;;;;10.20;9.15;;;6.80;99.90;;;;;;4936009;29;20252;-75
2023/12/14 05:30:24;;;;;;;13.48;9.52;;;6.90;99.90;;;;;;4937490;29;20254;-75
2023/12/14 05:32:53;;;;;;;9.13;8.27;;;6.80;99.90;;;;;;4937231;29;20232;-75
2023/12/14 05:35:21;;;;;;;9.52;8.18;;;6.80;99.90;;;;;;4936703;29;20236;-81
2023/12/14 05:37:48;;;;;;;9.40;8.50;;;6.80;99.90;;;;;;4938257;29;20233;-82
2023/12/14 05:40:15;;;;;;;11.07;9.98;;;6.80;99.90;;;;;;4937307;29;20227;-74
2023/12/14 05:42:42;;;;;;;9.57;8.70;;;6.80;99.90;;;;;;4936933;29;20240;-74
2023/12/14 05:45:10;;;;;;;8.27;7.25;;;6.80;99.90;;;;;;4937638;29;20239;-82
2023/12/14 05:47:38;;;;;;;10.70;8.75;;;6.80;99.90;;;;;;4937667;29;20229;-75
2023/12/14 05:50:09;;;;;;;8.93;8.02;;;6.90;99.90;;;;;;4937690;29;20232;-74
2023/12/14 05:52:42;;;;;;;9.40;7.95;;;6.90;99.90;;;;;;4937572;29;20229;-74
2023/12/14 05:55:10;;;;;;;9.25;8.35;;;6.90;99.90;;;;;;4936871;29;20687;-81
2023/12/14 05:57:37;;;;;;;9.68;8.80;;;6.90;99.90;;;;;;4937461;29;20696;-74
2023/12/14 06:00:07;;;;;;;11.20;7.43;;;6.90;99.90;;;;;;4936842;29;20247;-81
2023/12/14 06:02:36;;;;;;;10.30;9.27;;;7.00;99.90;;;;;;4937523;29;20252;-82
2023/12/14 06:05:04;;;;;;;9.55;8.52;;;7.00;99.90;;;;;;4936146;29;20228;-75
2023/12/14 06:07:33;;;;;;;8.15;7.45;;;7.00;99.90;;;;;;4937302;29;20224;-76
2023/12/14 06:10:04;;;;;;;9.60;8.00;;;7.00;99.90;;;;;;4936401;29;20233;-76
2023/12/14 06:12:32;;;;;;;8.70;7.88;;;6.90;99.90;;;;;;4936755;29;20236;-76
2023/12/14 06:14:59;;;;;;;8.98;7.85;;;7.00;99.90;;;;;;4936450;29;20236;-77
2023/12/14 06:17:28;;;;;;;8.27;7.57;;;7.00;99.90;;;;;;4936702;29;20303;-76
2023/12/14 06:19:55;;;;;;;12.80;9.18;;;7.00;99.90;;;;;;4936776;29;20721;-76
2023/12/14 06:22:22;;;;;;;9.20;8.30;;;7.00;99.90;;;;;;4936205;29;20236;-76
2023/12/14 06:24:50;;;;;;;11.95;9.65;;;6.90;99.90;;;;;;4923732;29;20236;-76
2023/12/14 06:27:17;;;;;;;9.00;7.60;;;6.90;99.90;;;;;;4916182;29;20252;-76
2023/12/14 06:29:45;;;;;;;9.60;8.60;;;7.00;99.90;;;;;;4917422;29;20700;-74
2023/12/14 06:32:12;;;;;;;9.13;8.27;;;7.00;99.90;;;;;;4917102;29;20324;-76
2023/12/14 06:34:39;;;;;;;9.88;8.02;;;7.00;99.90;;;;;;4917554;29;20232;-76
2023/12/14 06:37:05;;;;;;;7.90;7.20;;;7.00;99.90;;;;;;4916973;29;20225;-76
2023/12/14 06:39:33;;;;;;;9.65;8.60;;;7.00;99.90;;;;;;4916987;29;20237;-76
2023/12/14 06:42:01;;;;;;;10.45;9.43;;;7.00;99.90;;;;;;4917391;29;20244;-74
2023/12/14 06:44:30;;;;;;;11.00;9.32;;;7.00;99.90;;;;;;4917138;29;20237;-76
2023/12/14 06:47:00;;;;;;;9.52;8.52;;;7.00;99.90;;;;;;4917167;29;20249;-74
2023/12/14 06:49:27;;;;;;;9.07;8.25;;;7.00;99.90;;;;;;4917226;29;20237;-76
2023/12/14 06:51:54;;;;;;;7.50;6.80;;;7.00;99.90;;;;;;4917388;29;20233;-74
2023/12/14 06:54:27;;;;;;;9.27;8.23;;;7.00;99.90;;;;;;4916458;29;20542;-74
2023/12/14 06:56:54;;;;;;;8.18;6.90;;;7.00;99.90;;;;;;4917071;29;20406;-76
2023/12/14 06:59:22;;;;;;;8.82;6.85;;;7.00;99.90;;;;;;4908553;29;20261;-74
2023/12/14 07:01:50;;;;;;;9.82;8.02;;;7.00;99.90;;;;;;4916944;29;20874;-75
2023/12/14 07:04:19;;;;;;;9.98;8.85;;;7.00;99.90;;;;;;4914967;29;20229;-75
2023/12/14 07:06:51;;;;;;;8.18;7.38;;;7.00;99.90;;;;;;4916935;29;20221;-74
2023/12/14 07:09:19;;;;;;;9.43;8.50;;;7.00;99.90;;;;;;4916556;29;20253;-75
2023/12/14 07:11:46;;;;;;;9.88;9.02;;;7.00;99.90;;;;;;4916810;29;20292;-74
2023/12/14 07:14:14;;;;;;;9.60;8.70;;;7.00;99.90;;;;;;4916032;29;20236;-81
2023/12/14 07:16:43;;;;;;;9.75;8.75;;;7.00;99.90;;;;;;4917229;29;20308;-75
2023/12/14 07:19:10;;;;;;;10.75;8.25;;;7.00;99.90;;;;;;4916519;29;20225;-81
2023/12/14 07:21:37;;;;;;;9.05;8.20;;;7.00;99.90;;;;;;4916536;29;20255;-81
2023/12/14 07:24:05;;;;;;;9.32;8.10;;;7.00;99.90;;;;;;4916769;29;20245;-81
2023/12/14 07:26:34;;;;;;;9.93;9.00;;;7.00;99.90;;;;;;4916128;29;20561;-74
2023/12/14 07:29:01;;;;;;;10.85;9.40;;;7.00;99.90;;;;;;4916932;29;20246;-74
2023/12/14 07:31:29;;;;;;;10.52;9.52;;;7.00;99.90;;;;;;4916547;29;20575;-75
2023/12/14 07:33:58;;;;;;;11.52;10.32;;;7.00;99.90;;;;;;4916641;29;20320;-74
2023/12/14 07:36:25;;;;;;;9.68;8.73;;;7.00;99.90;;;;;;4916345;29;20577;-75
2023/12/14 07:38:53;;;;;;;11.18;9.98;;;7.10;99.90;;;;;;4916939;29;20292;-82
2023/12/14 07:41:23;;;;;;;10.23;8.55;;;7.00;99.90;;;;;;4916275;29;20229;-82
2023/12/14 07:43:49;;;;;;;10.75;9.68;;;7.10;99.90;;;;;;4916728;29;20300;-82
2023/12/14 07:46:16;;;;;;;10.15;9.05;;;7.10;99.90;;;;;;4916019;29;20240;-75
2023/12/14 07:48:44;;;;;;;13.25;10.98;;;7.10;99.90;;;;;;4916155;29;20221;-75
2023/12/14 07:51:12;;;;;;;11.65;10.45;;;7.10;99.90;;;;;;4916351;29;20605;-77
2023/12/14 07:53:40;;;;;;;11.13;10.00;;;7.10;99.90;;;;;;4917062;29;20225;-82
2023/12/14 07:56:08;;;;;;;12.57;9.55;;;7.10;99.90;;;;;;4918817;29;20300;-82
2023/12/14 07:58:35;;;;;;;11.43;10.27;;;7.10;99.90;;;;;;4920266;29;20697;-82
2023/12/14 08:01:02;;;;;;;14.60;11.35;;;7.10;99.90;;;;;;4920667;29;20229;-82
2023/12/14 08:03:29;;;;;;;11.40;10.20;;;7.10;99.90;;;;;;4919972;29;20241;-82
2023/12/14 08:05:56;;;;;;;14.75;11.80;;;7.10;99.90;;;;;;4920703;29;20634;-82
2023/12/14 08:08:25;;;;;;;12.65;11.07;;;7.10;99.90;;;;;;4919931;29;20657;-81
2023/12/14 08:10:52;;;;;;;13.10;11.80;;;7.10;99.90;;;;;;4920462;29;20316;-82
2023/12/14 08:13:19;;;;;;;12.88;10.93;;;7.00;99.90;;;;;;4919620;29;20614;-81
2023/12/14 08:15:46;;;;;;;11.35;10.25;;;7.00;99.90;;;;;;4920308;29;20735;-76
2023/12/14 08:18:13;;;;;;;12.30;10.70;;;7.00;99.90;;;;;;4919493;29;20236;-77
2023/12/14 08:20:41;;;;;;;14.82;12.15;;;7.00;99.90;;;;;;4919210;29;20236;-75
2023/12/14 08:23:08;;;;;;;11.90;10.55;;;7.10;99.90;;;;;;4920039;29;20229;-75
2023/12/14 08:25:36;;;;;;;15.07;11.80;;;7.10;99.90;;;;;;4919062;29;20305;-75
2023/12/14 08:28:04;;;;;;;14.13;11.00;;;7.10;99.90;;;;;;4920000;29;20686;-82
2023/12/14 08:30:31;;;;;;;13.73;12.15;;;7.10;99.90;;;;;;4919428;29;20233;-75
2023/12/14 08:32:58;;;;;;;12.95;11.43;;;7.10;99.90;;;;;;4919867;29;20240;-75
2023/12/14 08:35:25;;;;;;;12.98;11.65;;;7.10;99.90;;;;;;4919250;29;20240;-75
2023/12/14 08:37:52;;;;;;;12.68;11.40;;;7.20;99.90;;;;;;4919753;29;20231;-76
2023/12/14 08:40:19;;;;;;;12.55;11.05;;;7.20;99.90;;;;;;4918945;29;20304;-82
2023/12/14 08:42:49;;;;;;;17.52;12.63;;;7.20;99.90;;;;;;4919791;29;20244;-82
2023/12/14 08:45:17;;;;;;;14.10;12.60;;;7.20;99.90;;;;;;4918777;29;20229;-76
2023/12/14 08:47:44;;;;;;;13.07;11.85;;;7.20;99.90;;;;;;4919735;29;20225;-82
2023/12/14 08:50:11;;;;;;;18.63;13.30;;;7.20;99.90;;;;;;4919626;29;20743;-83
2023/12/14 08:52:38;;;;;;;14.85;13.25;;;7.20;99.90;;;;;;4918874;29;20240;-76
2023/12/14 08:55:06;;;;;;;14.85;12.88;;;7.10;99.90;;;;;;4919909;29;20744;-83
2023/12/14 08:57:33;;;;;;;16.75;11.98;;;7.10;99.90;;;;;;4919503;29;20240;-75
2023/12/14 09:00:04;;;;;;;16.27;12.32;;;7.10;99.90;;;;;;4919064;29;20244;-82
2023/12/14 09:02:31;;;;;;;14.45;12.73;;;7.20;99.90;;;;;;4919252;29;20233;-76
2023/12/14 09:04:58;;;;;;;14.20;12.55;;;7.20;99.90;;;;;;4919524;29;20551;-75
2023/12/14 09:07:25;;;;;;;13.95;12.45;;;7.20;99.90;;;;;;4917424;29;20764;-76
2023/12/14 09:09:52;;;;;;;13.77;12.38;;;7.20;99.90;;;;;;4919983;29;20241;-82
2023/12/14 09:12:20;;;;;;;15.07;12.98;;;7.30;99.90;;;;;;4918914;29;20230;-82
2023/12/14 09:14:47;;;;;;;15.43;12.65;;;7.30;99.90;;;;;;4920093;29;20252;-83
2023/12/14 09:17:15;;;;;;;13.73;11.52;;;7.30;99.90;;;;;;4919826;29;20256;-83
2023/12/14 09:19:42;;;;;;;14.20;12.38;;;7.20;99.90;;;;;;4919131;29;20229;-82
2023/12/14 09:22:09;;;;;;;14.35;12.70;;;7.30;99.90;;;;;;4919566;29;20252;-82
2023/12/14 09:24:37;;;;;;;15.52;12.40;;;7.30;99.90;;;;;;4919672;29;20233;-82
2023/12/14 09:27:11;;;;;;;13.27;11.85;;;7.30;99.90;;;;;;4929691;29;20241;-83
2023/12/14 09:29:38;;;;;;;15.27;11.70;;;7.30;99.90;;;;;;4925609;29;20280;-82
2023/12/14 09:32:06;;;;;;;15.35;12.65;;;7.30;99.90;;;;;;4926410;29;20237;-83
2023/12/14 09:34:34;;;;;;;15.07;12.95;;;7.30;99.90;;;;;;4920462;29;20289;-83
2023/12/14 09:37:01;;;;;;;13.65;11.55;;;7.30;99.90;;;;;;4919983;29;20244;-76
2023/12/14 09:39:28;;;;;;;14.40;12.30;;;7.30;99.90;;;;;;4918302;29;20229;-82
2023/12/14 09:42:04;;;;;;;14.57;11.27;;;7.30;99.90;;;;;;4920512;29;20241;-75
2023/12/14 09:44:31;;;;;;;12.15;10.90;;;7.30;99.90;;;;;;4917864;29;20764;-76
2023/12/14 09:47:00;;;;;;;12.43;10.60;;;7.30;99.90;;;;;;4918029;29;20241;-75
2023/12/14 09:49:29;;;;;;;12.85;11.57;;;7.30;99.90;;;;;;4918368;29;20235;-75
2023/12/14 09:51:57;;;;;;;14.70;11.70;;;7.30;99.90;;;;;;4917850;29;20308;-75
2023/12/14 09:54:24;;;;;;;14.32;12.18;;;7.30;99.90;;;;;;4918339;29;20233;-75
2023/12/14 09:56:52;;;;;;;12.48;11.15;;;7.20;99.90;;;;;;4917798;29;20233;-75
2023/12/14 09:59:19;;;;;;;15.05;12.50;;;7.30;99.90;;;;;;4918316;29;20675;-83
2023/12/14 10:01:47;;;;;;;14.15;12.07;;;7.20;99.90;;;;;;4917967;29;20225;-83
2023/12/14 10:04:16;;;;;;;13.90;12.40;;;7.20;99.90;;;;;;4918003;29;20240;-83
2023/12/14 10:06:45;;;;;;;13.05;11.02;;;7.20;99.90;;;;;;4917798;29;20255;-82
2023/12/14 10:09:16;;;;;;;14.52;12.60;;;7.20;99.90;;;;;;4918582;29;20272;-83
2023/12/14 10:11:43;;;;;;;15.60;12.93;;;7.20;99.90;;;;;;4917739;29;20240;-83
2023/12/14 10:14:21;;;;;;;17.33;12.68;;;7.20;99.90;;;;;;4917429;29;20225;-83
2023/12/14 10:16:49;;;;;;;13.77;10.95;;;7.20;99.90;;;;;;4917222;29;20229;-82
2023/12/14 10:19:18;;;;;;;14.35;11.00;;;7.20;99.90;;;;;;4917817;29;20229;-83
2023/12/14 10:21:47;;;;;;;12.93;11.40;;;7.20;99.90;;;;;;4917417;29;20626;-83
2023/12/14 10:24:16;;;;;;;13.85;11.68;;;7.20;99.90;;;;;;4917905;29;20573;-82
2023/12/14 10:26:46;;;;;;;12.38;10.18;;;7.20;99.90;;;;;;4917020;29;20237;-82
2023/12/14 10:29:13;;;;;;;12.85;11.30;;;7.20;99.90;;;;;;4917665;29;20237;-82
2023/12/14 10:31:40;;;;;;;14.55;12.50;;;7.20;99.90;;;;;;4917002;29;20312;-82
2023/12/14 10:34:07;;;;;;;16.50;12.85;;;7.30;99.90;;;;;;4908179;29;20277;-83
2023/12/14 10:36:35;;;;;;;14.52;11.82;;;7.20;99.90;;;;;;4917131;29;20222;-82
2023/12/14 10:39:05;;;;;;;12.63;11.30;;;7.30;99.90;;;;;;4917670;29;20225;-82
2023/12/14 10:41:34;;;;;;;14.10;12.25;;;7.30;99.90;;;;;;4917797;29;20308;-82
2023/12/14 10:44:02;;;;;;;14.85;12.02;;;7.30;99.90;;;;;;4916741;29;20226;-82
2023/12/14 10:46:29;;;;;;;13.88;11.65;;;7.30;99.90;;;;;;4917621;29;20233;-76
2023/12/14 10:48:57;;;;;;;11.93;10.35;;;7.30;99.90;;;;;;4917224;29;20430;-83
2023/12/14 10:51:27;;;;;;;13.00;10.60;;;7.30;99.90;;;;;;4917562;29;20245;-75
2023/12/14 10:53:57;;;;;;;13.88;11.73;;;7.30;99.90;;;;;;4916332;29;20229;-82
2023/12/14 10:56:24;;;;;;;13.25;11.70;;;7.20;99.90;;;;;;4917554;29;20218;-83
2023/12/14 10:58:55;;;;;;;13.98;11.30;;;7.30;99.90;;;;;;4917742;29;20676;-82
2023/12/14 11:01:24;;;;;;;13.02;11.73;;;7.30;99.90;;;;;;4917552;29;20229;-82
2023/12/14 11:03:55;;;;;;;13.93;12.50;;;7.30;99.90;;;;;;4916693;29;20305;-76
2023/12/14 11:06:30;;;;;;;13.57;11.43;;;7.40;99.90;;;;;;4916988;29;20225;-75
2023/12/14 11:08:59;;;;;;;16.77;11.98;;;7.40;99.90;;;;;;4916839;29;20240;-82
2023/12/14 11:11:30;;;;;;;12.48;10.43;;;7.40;99.90;;;;;;4916974;29;20451;-82
2023/12/14 11:13:58;;;;;;;14.15;12.15;;;7.30;99.90;;;;;;4918921;29;20316;-82
2023/12/14 11:16:31;;;;;;;11.18;9.82;;;7.30;99.90;;;;;;4917622;29;20612;-82
2023/12/14 11:19:26;;;;;;;12.27;9.65;;;7.30;99.90;;;;;;4917028;29;20263;-76
2023/12/14 11:22:12;;;;;;;11.63;9.57;;;7.30;99.90;;;;;;4916798;29;20585;-76
2023/12/14 11:24:43;;;;;;;11.85;10.23;;;7.30;99.90;;;;;;4927858;29;20225;-75
2023/12/14 11:27:15;;;;;;;11.65;9.52;;;7.30;99.90;;;;;;4935931;29;20315;-75
2023/12/14 11:29:43;;;;;;;11.38;10.18;;;7.30;99.90;;;;;;4936364;29;20221;-75
2023/12/14 11:32:13;;;;;;;10.10;9.10;;;7.30;99.90;;;;;;4939192;29;20232;-75
2023/12/14 11:34:41;;;;;;;10.52;9.52;;;7.30;99.90;;;;;;4940435;29;20655;-82
2023/12/14 11:37:08;;;;;;;12.80;9.77;;;7.30;99.90;;;;;;4939803;29;20266;-81
2023/12/14 11:39:35;;;;;;;13.05;10.50;;;7.30;99.90;;;;;;4939901;29;20248;-82
2023/12/14 11:42:03;;;;;;;12.27;10.38;;;7.30;99.90;;;;;;4938233;29;20232;-75
2023/12/14 11:44:31;;;;;;;11.82;10.15;;;7.30;99.90;;;;;;4940156;29;20233;-82
2023/12/14 11:46:59;;;;;;;11.32;9.95;;;7.40;99.90;;;;;;4939386;29;20233;-82
2023/12/14 11:49:27;;;;;;;11.50;10.30;;;7.40;99.90;;;;;;4939960;29;20232;-83
2023/12/14 11:51:55;;;;;;;14.80;10.93;;;7.40;99.90;;;;;;4939241;29;20588;-76
2023/12/14 11:54:30;;;;;;;11.45;10.40;;;7.40;99.90;;;;;;4939538;29;20701;-76
2023/12/14 11:56:56;;;;;;;12.90;11.05;;;7.50;99.90;;;;;;4938805;29;20231;-76
2023/12/14 11:59:24;;;;;;;12.07;10.23;;;7.50;99.90;;;;;;4939392;29;20228;-75
2023/12/14 12:02:00;;;;;;;12.93;11.63;;;7.50;99.90;;;;;;4939303;29;20239;-75
2023/12/14 12:04:36;;;;;;;11.20;10.10;;;7.50;99.90;;;;;;4939493;29;20260;-75
2023/12/14 12:07:05;;;;;;;13.07;10.52;;;7.50;99.90;;;;;;4938695;29;20232;-75
2023/12/14 12:09:37;;;;;;;11.57;10.38;;;7.50;99.90;;;;;;4939273;29;20579;-75
2023/12/14 12:12:07;;;;;;;10.85;9.93;;;7.50;99.90;;;;;;4938781;29;20316;-83
2023/12/14 12:14:33;;;;;;;11.55;9.90;;;7.50;99.90;;;;;;4939283;29;20225;-82
2023/12/14 12:17:01;;;;;;;12.43;10.55;;;7.50;99.90;;;;;;4938852;29;20247;-83
2023/12/14 12:19:28;;;;;;;10.93;9.63;;;7.50;99.90;;;;;;4939001;29;20240;-83
2023/12/14 12:21:55;;;;;;;10.40;9.13;;;7.50;99.90;;;;;;4938615;29;20237;-82
2023/12/14 12:24:22;;;;;;;12.43;10.95;;;7.50;99.90;;;;;;4939358;29;20312;-76
2023/12/14 12:26:50;;;;;;;12.15;10.85;;;7.50;99.90;;;;;;4938493;29;20229;-75
2023/12/14 12:29:17;;;;;;;12.15;10.60;;;7.50;99.90;;;;;;4938246;29;20228;-76
2023/12/14 12:31:45;;;;;;;12.60;11.40;;;7.50;99.90;;;;;;4938815;29;20216;-75
2023/12/14 12:34:13;;;;;;;11.48;10.25;;;7.60;99.90;;;;;;4942274;28;20215;-74
2023/12/14 12:36:40;;;;;;;12.85;11.07;;;7.60;99.90;;;;;;4956467;28;20682;-75
2023/12/14 12:41:51;;;;;;;11.80;10.60;;;7.60;99.90;;;;;;4966362;28;20239;-75
2023/12/14 12:44:18;;;;;;;14.43;11.98;;;7.60;99.90;;;;;;4957823;28;20687;-74
2023/12/14 12:46:45;;;;;;;10.93;9.93;;;7.60;99.90;;;;;;4975115;28;20233;-75
2023/12/14 12:49:13;;;;;;;14.90;11.25;;;7.60;99.90;;;;;;4966815;28;20571;-81
2023/12/14 12:51:40;;;;;;;12.55;10.55;;;7.60;99.90;;;;;;4959832;28;20322;-82